sensor_id;sensor_type;location;lat;lon;timestamp;temperature;humidity
25616;DHT22;13482;48.234;13.006;2023-03-11T00:00:28;8.30;60.90
25616;DHT22;13482;48.234;13.006;2023-03-11T00:02:58;8.20;61.30
25616;DHT22;13482;48.234;13.006;2023-03-11T00:05:30;8.20;61.70
25616;DHT22;13482;48.234;13.006;2023-03-11T00:07:59;8.10;62.20
25616;DHT22;13482;48.234;13.006;2023-03-11T00:10:30;7.80;62.70
25616;DHT22;13482;48.234;13.006;2023-03-11T00:12:59;7.80;63.00
25616;DHT22;13482;48.234;13.006;2023-03-11T00:15:27;7.60;63.30
25616;DHT22;13482;48.234;13.006;2023-03-11T00:17:55;7.50;63.50
25616;DHT22;13482;48.234;13.006;2023-03-11T00:20:24;7.40;63.80
25616;DHT22;13482;48.234;13.006;2023-03-11T00:23:03;7.30;64.00
25616;DHT22;13482;48.234;13.006;2023-03-11T00:25:32;7.20;64.20
25616;DHT22;13482;48.234;13.006;2023-03-11T00:28:01;7.10;64.40
25616;DHT22;13482;48.234;13.006;2023-03-11T00:30:28;7.10;64.60
25616;DHT22;13482;48.234;13.006;2023-03-11T00:32:57;7.00;64.50
25616;DHT22;13482;48.234;13.006;2023-03-11T00:35:28;6.90;64.60
25616;DHT22;13482;48.234;13.006;2023-03-11T00:37:57;6.90;64.60
25616;DHT22;13482;48.234;13.006;2023-03-11T00:40:31;6.80;64.80
25616;DHT22;13482;48.234;13.006;2023-03-11T00:43:00;6.80;64.50
25616;DHT22;13482;48.234;13.006;2023-03-11T00:45:28;6.70;64.70
25616;DHT22;13482;48.234;13.006;2023-03-11T00:47:55;6.70;64.80
25616;DHT22;13482;48.234;13.006;2023-03-11T00:50:26;6.60;64.90
25616;DHT22;13482;48.234;13.006;2023-03-11T00:52:56;6.60;64.90
25616;DHT22;13482;48.234;13.006;2023-03-11T00:55:25;6.60;64.80
25616;DHT22;13482;48.234;13.006;2023-03-11T00:57:59;6.50;64.90
25616;DHT22;13482;48.234;13.006;2023-03-11T01:00:29;6.50;64.90
25616;DHT22;13482;48.234;13.006;2023-03-11T01:02:56;6.50;65.00
25616;DHT22;13482;48.234;13.006;2023-03-11T01:05:27;6.50;64.80
25616;DHT22;13482;48.234;13.006;2023-03-11T01:07:55;6.50;64.90
25616;DHT22;13482;48.234;13.006;2023-03-11T01:10:23;6.50;65.20
25616;DHT22;13482;48.234;13.006;2023-03-11T01:12:51;6.50;64.70
25616;DHT22;13482;48.234;13.006;2023-03-11T01:15:38;6.50;64.70
25616;DHT22;13482;48.234;13.006;2023-03-11T01:18:06;6.50;64.60
25616;DHT22;13482;48.234;13.006;2023-03-11T01:20:34;6.50;64.30
25616;DHT22;13482;48.234;13.006;2023-03-11T01:23:04;6.50;64.10
25616;DHT22;13482;48.234;13.006;2023-03-11T01:25:31;6.40;63.70
25616;DHT22;13482;48.234;13.006;2023-03-11T01:27:58;6.40;63.60
25616;DHT22;13482;48.234;13.006;2023-03-11T01:30:27;6.40;63.30
25616;DHT22;13482;48.234;13.006;2023-03-11T01:32:56;6.30;63.10
25616;DHT22;13482;48.234;13.006;2023-03-11T01:35:26;6.30;62.50
25616;DHT22;13482;48.234;13.006;2023-03-11T01:37:54;6.20;62.00
25616;DHT22;13482;48.234;13.006;2023-03-11T01:40:33;6.20;62.30
25616;DHT22;13482;48.234;13.006;2023-03-11T01:43:04;6.20;61.40
25616;DHT22;13482;48.234;13.006;2023-03-11T01:45:38;6.10;61.70
25616;DHT22;13482;48.234;13.006;2023-03-11T01:48:15;6.00;61.60
25616;DHT22;13482;48.234;13.006;2023-03-11T01:50:45;6.00;61.60
25616;DHT22;13482;48.234;13.006;2023-03-11T01:53:16;6.00;61.40
25616;DHT22;13482;48.234;13.006;2023-03-11T01:55:45;6.00;61.10
25616;DHT22;13482;48.234;13.006;2023-03-11T01:58:19;5.90;60.50
25616;DHT22;13482;48.234;13.006;2023-03-11T02:00:48;5.90;60.60
25616;DHT22;13482;48.234;13.006;2023-03-11T02:03:37;5.90;60.70
25616;DHT22;13482;48.234;13.006;2023-03-11T02:06:10;5.80;60.00
25616;DHT22;13482;48.234;13.006;2023-03-11T02:08:40;5.80;60.20
25616;DHT22;13482;48.234;13.006;2023-03-11T02:11:43;5.80;59.80
25616;DHT22;13482;48.234;13.006;2023-03-11T02:14:05;5.80;60.20
25616;DHT22;13482;48.234;13.006;2023-03-11T02:16:33;5.80;60.00
25616;DHT22;13482;48.234;13.006;2023-03-11T02:20:12;5.80;60.10
25616;DHT22;13482;48.234;13.006;2023-03-11T02:22:07;5.80;60.20
25616;DHT22;13482;48.234;13.006;2023-03-11T02:24:52;5.80;60.40
25616;DHT22;13482;48.234;13.006;2023-03-11T02:27:26;5.80;60.20
25616;DHT22;13482;48.234;13.006;2023-03-11T02:29:54;5.70;60.00
25616;DHT22;13482;48.234;13.006;2023-03-11T02:32:23;5.70;59.80
25616;DHT22;13482;48.234;13.006;2023-03-11T02:34:50;5.70;60.40
25616;DHT22;13482;48.234;13.006;2023-03-11T02:37:17;5.70;60.70
25616;DHT22;13482;48.234;13.006;2023-03-11T02:39:47;5.70;60.50
25616;DHT22;13482;48.234;13.006;2023-03-11T02:42:26;5.70;60.70
25616;DHT22;13482;48.234;13.006;2023-03-11T02:45:05;5.70;60.60
25616;DHT22;13482;48.234;13.006;2023-03-11T02:47:36;5.60;60.80
25616;DHT22;13482;48.234;13.006;2023-03-11T02:52:40;5.60;60.90
25616;DHT22;13482;48.234;13.006;2023-03-11T02:55:09;5.50;61.10
25616;DHT22;13482;48.234;13.006;2023-03-11T02:57:37;5.50;60.90
25616;DHT22;13482;48.234;13.006;2023-03-11T03:00:05;5.50;61.10
25616;DHT22;13482;48.234;13.006;2023-03-11T03:02:36;5.50;61.20
25616;DHT22;13482;48.234;13.006;2023-03-11T03:05:04;5.40;61.30
25616;DHT22;13482;48.234;13.006;2023-03-11T03:07:31;5.40;61.40
25616;DHT22;13482;48.234;13.006;2023-03-11T03:09:59;5.40;61.40
25616;DHT22;13482;48.234;13.006;2023-03-11T03:12:26;5.40;61.50
25616;DHT22;13482;48.234;13.006;2023-03-11T03:14:53;5.40;61.50
25616;DHT22;13482;48.234;13.006;2023-03-11T03:17:20;5.40;61.60
25616;DHT22;13482;48.234;13.006;2023-03-11T03:19:47;5.30;61.60
25616;DHT22;13482;48.234;13.006;2023-03-11T03:22:15;5.30;61.70
25616;DHT22;13482;48.234;13.006;2023-03-11T03:24:42;5.30;61.80
25616;DHT22;13482;48.234;13.006;2023-03-11T03:27:09;5.30;61.80
25616;DHT22;13482;48.234;13.006;2023-03-11T03:29:36;5.30;61.80
25616;DHT22;13482;48.234;13.006;2023-03-11T03:32:03;5.20;62.00
25616;DHT22;13482;48.234;13.006;2023-03-11T03:34:31;5.20;62.00
25616;DHT22;13482;48.234;13.006;2023-03-11T03:36:58;5.20;62.00
25616;DHT22;13482;48.234;13.006;2023-03-11T03:39:25;5.10;62.00
25616;DHT22;13482;48.234;13.006;2023-03-11T03:41:56;5.10;62.10
25616;DHT22;13482;48.234;13.006;2023-03-11T03:44:23;5.10;62.10
25616;DHT22;13482;48.234;13.006;2023-03-11T03:46:50;5.10;62.20
25616;DHT22;13482;48.234;13.006;2023-03-11T03:49:17;5.00;62.20
25616;DHT22;13482;48.234;13.006;2023-03-11T03:51:44;5.00;62.20
25616;DHT22;13482;48.234;13.006;2023-03-11T03:54:12;5.00;62.20
25616;DHT22;13482;48.234;13.006;2023-03-11T03:56:39;5.00;62.20
25616;DHT22;13482;48.234;13.006;2023-03-11T03:59:06;5.00;62.20
25616;DHT22;13482;48.234;13.006;2023-03-11T04:01:33;5.00;62.20
25616;DHT22;13482;48.234;13.006;2023-03-11T04:04:00;5.00;62.20
25616;DHT22;13482;48.234;13.006;2023-03-11T04:06:27;5.00;62.20
25616;DHT22;13482;48.234;13.006;2023-03-11T04:08:54;4.90;62.10
25616;DHT22;13482;48.234;13.006;2023-03-11T04:11:22;4.90;62.10
25616;DHT22;13482;48.234;13.006;2023-03-11T04:13:49;4.90;62.00
25616;DHT22;13482;48.234;13.006;2023-03-11T04:16:21;4.90;62.00
25616;DHT22;13482;48.234;13.006;2023-03-11T04:18:49;4.90;61.90
25616;DHT22;13482;48.234;13.006;2023-03-11T04:21:16;4.90;61.90
25616;DHT22;13482;48.234;13.006;2023-03-11T04:23:44;4.90;61.90
25616;DHT22;13482;48.234;13.006;2023-03-11T04:26:11;4.90;61.80
25616;DHT22;13482;48.234;13.006;2023-03-11T04:28:39;4.90;61.80
25616;DHT22;13482;48.234;13.006;2023-03-11T04:31:06;4.80;61.80
25616;DHT22;13482;48.234;13.006;2023-03-11T04:33:33;4.80;61.70
25616;DHT22;13482;48.234;13.006;2023-03-11T04:36:05;4.80;61.80
25616;DHT22;13482;48.234;13.006;2023-03-11T04:38:33;4.80;61.80
25616;DHT22;13482;48.234;13.006;2023-03-11T04:41:02;4.80;61.70
25616;DHT22;13482;48.234;13.006;2023-03-11T04:43:30;4.80;61.70
25616;DHT22;13482;48.234;13.006;2023-03-11T04:45:57;4.80;61.60
25616;DHT22;13482;48.234;13.006;2023-03-11T04:48:24;4.70;61.60
25616;DHT22;13482;48.234;13.006;2023-03-11T04:50:53;4.70;61.50
25616;DHT22;13482;48.234;13.006;2023-03-11T04:53:21;4.70;61.60
25616;DHT22;13482;48.234;13.006;2023-03-11T04:55:49;4.70;61.50
25616;DHT22;13482;48.234;13.006;2023-03-11T04:58:18;4.70;61.60
25616;DHT22;13482;48.234;13.006;2023-03-11T05:00:45;4.70;61.60
25616;DHT22;13482;48.234;13.006;2023-03-11T05:03:13;4.70;61.60
25616;DHT22;13482;48.234;13.006;2023-03-11T05:05:40;4.70;61.60
25616;DHT22;13482;48.234;13.006;2023-03-11T05:08:07;4.70;61.60
25616;DHT22;13482;48.234;13.006;2023-03-11T05:10:34;4.70;61.70
25616;DHT22;13482;48.234;13.006;2023-03-11T05:13:02;4.70;61.70
25616;DHT22;13482;48.234;13.006;2023-03-11T05:15:29;4.70;61.80
25616;DHT22;13482;48.234;13.006;2023-03-11T05:17:57;4.70;61.70
25616;DHT22;13482;48.234;13.006;2023-03-11T05:20:24;4.70;61.60
25616;DHT22;13482;48.234;13.006;2023-03-11T05:22:51;4.70;61.70
25616;DHT22;13482;48.234;13.006;2023-03-11T05:25:19;4.80;61.80
25616;DHT22;13482;48.234;13.006;2023-03-11T05:27:46;4.80;61.80
25616;DHT22;13482;48.234;13.006;2023-03-11T05:30:13;4.80;61.70
25616;DHT22;13482;48.234;13.006;2023-03-11T05:32:41;4.80;61.70
25616;DHT22;13482;48.234;13.006;2023-03-11T05:35:08;4.90;61.70
25616;DHT22;13482;48.234;13.006;2023-03-11T05:37:35;4.90;61.70
25616;DHT22;13482;48.234;13.006;2023-03-11T05:40:10;4.90;61.60
25616;DHT22;13482;48.234;13.006;2023-03-11T05:42:37;4.90;61.50
25616;DHT22;13482;48.234;13.006;2023-03-11T05:45:07;4.90;61.40
25616;DHT22;13482;48.234;13.006;2023-03-11T05:47:35;4.90;61.40
25616;DHT22;13482;48.234;13.006;2023-03-11T05:50:03;4.90;61.50
25616;DHT22;13482;48.234;13.006;2023-03-11T05:52:30;4.90;61.50
25616;DHT22;13482;48.234;13.006;2023-03-11T05:54:59;5.00;61.60
25616;DHT22;13482;48.234;13.006;2023-03-11T05:57:27;5.00;61.60
25616;DHT22;13482;48.234;13.006;2023-03-11T05:59:54;5.00;61.60
25616;DHT22;13482;48.234;13.006;2023-03-11T06:02:21;5.00;61.60
25616;DHT22;13482;48.234;13.006;2023-03-11T06:04:49;5.10;61.50
25616;DHT22;13482;48.234;13.006;2023-03-11T06:07:16;5.10;61.50
25616;DHT22;13482;48.234;13.006;2023-03-11T06:09:43;5.10;61.50
25616;DHT22;13482;48.234;13.006;2023-03-11T06:12:10;5.10;61.40
25616;DHT22;13482;48.234;13.006;2023-03-11T06:14:37;5.10;61.00
25616;DHT22;13482;48.234;13.006;2023-03-11T06:17:04;5.10;61.20
25616;DHT22;13482;48.234;13.006;2023-03-11T06:19:31;5.20;61.40
25616;DHT22;13482;48.234;13.006;2023-03-11T06:21:59;5.20;61.40
25616;DHT22;13482;48.234;13.006;2023-03-11T06:24:26;5.20;61.20
25616;DHT22;13482;48.234;13.006;2023-03-11T06:26:53;5.30;61.00
25616;DHT22;13482;48.234;13.006;2023-03-11T06:29:20;5.30;61.30
25616;DHT22;13482;48.234;13.006;2023-03-11T06:31:50;5.30;60.90
25616;DHT22;13482;48.234;13.006;2023-03-11T06:34:17;5.30;60.30
25616;DHT22;13482;48.234;13.006;2023-03-11T06:36:44;5.40;60.70
25616;DHT22;13482;48.234;13.006;2023-03-11T06:39:13;5.40;60.90
25616;DHT22;13482;48.234;13.006;2023-03-11T06:41:41;5.40;59.50
25616;DHT22;13482;48.234;13.006;2023-03-11T06:44:09;5.50;60.30
25616;DHT22;13482;48.234;13.006;2023-03-11T06:46:36;5.50;60.30
25616;DHT22;13482;48.234;13.006;2023-03-11T06:49:04;5.60;58.80
25616;DHT22;13482;48.234;13.006;2023-03-11T06:51:31;5.60;58.20
25616;DHT22;13482;48.234;13.006;2023-03-11T06:53:58;5.60;58.60
25616;DHT22;13482;48.234;13.006;2023-03-11T06:56:25;5.60;58.50
25616;DHT22;13482;48.234;13.006;2023-03-11T06:58:52;5.60;58.00
25616;DHT22;13482;48.234;13.006;2023-03-11T07:01:22;5.60;57.80
25616;DHT22;13482;48.234;13.006;2023-03-11T07:03:51;5.70;58.30
25616;DHT22;13482;48.234;13.006;2023-03-11T07:06:20;5.70;58.10
25616;DHT22;13482;48.234;13.006;2023-03-11T07:08:50;5.70;58.30
25616;DHT22;13482;48.234;13.006;2023-03-11T07:11:23;5.70;57.60
25616;DHT22;13482;48.234;13.006;2023-03-11T07:13:53;5.70;58.00
25616;DHT22;13482;48.234;13.006;2023-03-11T07:16:24;5.70;57.10
25616;DHT22;13482;48.234;13.006;2023-03-11T07:18:58;5.70;58.00
25616;DHT22;13482;48.234;13.006;2023-03-11T07:21:27;5.70;57.90
25616;DHT22;13482;48.234;13.006;2023-03-11T07:23:58;5.70;58.10
25616;DHT22;13482;48.234;13.006;2023-03-11T07:26:27;5.70;57.10
25616;DHT22;13482;48.234;13.006;2023-03-11T07:28:56;5.70;57.10
25616;DHT22;13482;48.234;13.006;2023-03-11T07:31:34;5.60;56.90
25616;DHT22;13482;48.234;13.006;2023-03-11T07:34:05;5.60;57.20
25616;DHT22;13482;48.234;13.006;2023-03-11T07:36:39;5.60;57.70
25616;DHT22;13482;48.234;13.006;2023-03-11T07:39:12;5.50;57.70
25616;DHT22;13482;48.234;13.006;2023-03-11T07:41:41;5.50;57.50
25616;DHT22;13482;48.234;13.006;2023-03-11T07:44:11;5.40;58.20
25616;DHT22;13482;48.234;13.006;2023-03-11T07:46:39;5.50;58.40
25616;DHT22;13482;48.234;13.006;2023-03-11T07:49:06;5.50;58.30
25616;DHT22;13482;48.234;13.006;2023-03-11T07:51:35;5.50;58.50
25616;DHT22;13482;48.234;13.006;2023-03-11T07:54:03;5.50;58.60
25616;DHT22;13482;48.234;13.006;2023-03-11T07:56:32;5.60;58.80
25616;DHT22;13482;48.234;13.006;2023-03-11T07:59:02;5.60;58.50
25616;DHT22;13482;48.234;13.006;2023-03-11T08:01:31;5.70;59.00
25616;DHT22;13482;48.234;13.006;2023-03-11T08:04:04;5.70;59.10
25616;DHT22;13482;48.234;13.006;2023-03-11T08:06:34;5.80;59.10
25616;DHT22;13482;48.234;13.006;2023-03-11T08:09:05;5.90;59.10
25616;DHT22;13482;48.234;13.006;2023-03-11T08:11:34;5.90;58.80
25616;DHT22;13482;48.234;13.006;2023-03-11T08:14:01;6.00;58.70
25616;DHT22;13482;48.234;13.006;2023-03-11T08:16:30;6.00;59.00
25616;DHT22;13482;48.234;13.006;2023-03-11T08:18:57;6.10;59.20
25616;DHT22;13482;48.234;13.006;2023-03-11T08:21:26;6.20;59.40
25616;DHT22;13482;48.234;13.006;2023-03-11T08:23:59;6.30;59.60
25616;DHT22;13482;48.234;13.006;2023-03-11T08:26:27;6.40;59.50
25616;DHT22;13482;48.234;13.006;2023-03-11T08:28:56;6.50;58.60
25616;DHT22;13482;48.234;13.006;2023-03-11T08:31:29;6.60;58.70
25616;DHT22;13482;48.234;13.006;2023-03-11T08:34:00;6.70;59.20
25616;DHT22;13482;48.234;13.006;2023-03-11T08:36:29;6.80;59.50
25616;DHT22;13482;48.234;13.006;2023-03-11T08:38:57;7.00;58.00
25616;DHT22;13482;48.234;13.006;2023-03-11T08:41:25;7.10;58.90
25616;DHT22;13482;48.234;13.006;2023-03-11T08:43:53;7.20;58.40
25616;DHT22;13482;48.234;13.006;2023-03-11T08:49:00;7.30;57.60
25616;DHT22;13482;48.234;13.006;2023-03-11T08:51:29;7.40;57.80
25616;DHT22;13482;48.234;13.006;2023-03-11T08:53:59;7.40;57.90
25616;DHT22;13482;48.234;13.006;2023-03-11T08:56:26;7.50;57.60
25616;DHT22;13482;48.234;13.006;2023-03-11T08:58:53;7.50;57.90
25616;DHT22;13482;48.234;13.006;2023-03-11T09:01:21;7.60;57.70
25616;DHT22;13482;48.234;13.006;2023-03-11T09:03:49;7.60;57.90
25616;DHT22;13482;48.234;13.006;2023-03-11T09:06:17;7.70;57.50
25616;DHT22;13482;48.234;13.006;2023-03-11T09:08:45;7.80;57.60
25616;DHT22;13482;48.234;13.006;2023-03-11T09:11:13;7.80;57.40
25616;DHT22;13482;48.234;13.006;2023-03-11T09:13:41;7.90;57.20
25616;DHT22;13482;48.234;13.006;2023-03-11T09:16:14;7.90;56.70
25616;DHT22;13482;48.234;13.006;2023-03-11T09:18:43;8.00;57.60
25616;DHT22;13482;48.234;13.006;2023-03-11T09:21:11;8.10;57.40
25616;DHT22;13482;48.234;13.006;2023-03-11T09:23:39;8.10;57.20
25616;DHT22;13482;48.234;13.006;2023-03-11T09:26:10;8.20;56.80
25616;DHT22;13482;48.234;13.006;2023-03-11T09:28:39;8.30;57.40
25616;DHT22;13482;48.234;13.006;2023-03-11T09:31:06;8.30;55.70
25616;DHT22;13482;48.234;13.006;2023-03-11T09:33:41;8.40;55.90
25616;DHT22;13482;48.234;13.006;2023-03-11T09:36:14;8.40;56.40
25616;DHT22;13482;48.234;13.006;2023-03-11T09:38:43;8.40;57.30
25616;DHT22;13482;48.234;13.006;2023-03-11T09:52:09;9.00;57.00
25616;DHT22;13482;48.234;13.006;2023-03-11T09:54:51;9.10;56.10
25616;DHT22;13482;48.234;13.006;2023-03-11T09:57:23;9.20;55.70
25616;DHT22;13482;48.234;13.006;2023-03-11T09:59:52;9.20;55.80
25616;DHT22;13482;48.234;13.006;2023-03-11T10:02:22;9.30;55.60
25616;DHT22;13482;48.234;13.006;2023-03-11T10:05:08;9.30;55.40
25616;DHT22;13482;48.234;13.006;2023-03-11T10:07:43;9.30;54.50
25616;DHT22;13482;48.234;13.006;2023-03-11T10:10:13;9.20;54.20
25616;DHT22;13482;48.234;13.006;2023-03-11T10:15:54;9.10;54.30
25616;DHT22;13482;48.234;13.006;2023-03-11T10:19:08;9.00;53.60
25616;DHT22;13482;48.234;13.006;2023-03-11T10:22:17;8.80;53.80
25616;DHT22;13482;48.234;13.006;2023-03-11T10:30:40;8.50;55.60
25616;DHT22;13482;48.234;13.006;2023-03-11T10:33:37;8.50;55.10
25616;DHT22;13482;48.234;13.006;2023-03-11T10:36:14;8.50;55.70
25616;DHT22;13482;48.234;13.006;2023-03-11T10:38:47;8.50;55.50
25616;DHT22;13482;48.234;13.006;2023-03-11T10:41:22;8.50;54.90
25616;DHT22;13482;48.234;13.006;2023-03-11T10:44:03;8.50;55.00
25616;DHT22;13482;48.234;13.006;2023-03-11T10:46:32;8.60;55.60
25616;DHT22;13482;48.234;13.006;2023-03-11T10:48:59;8.70;55.60
25616;DHT22;13482;48.234;13.006;2023-03-11T10:51:34;8.80;55.40
25616;DHT22;13482;48.234;13.006;2023-03-11T10:54:03;8.90;55.70
25616;DHT22;13482;48.234;13.006;2023-03-11T10:59:03;9.20;55.80
25616;DHT22;13482;48.234;13.006;2023-03-11T11:01:32;9.30;55.20
25616;DHT22;13482;48.234;13.006;2023-03-11T11:04:00;9.40;55.60
25616;DHT22;13482;48.234;13.006;2023-03-11T11:11:36;9.70;54.90
25616;DHT22;13482;48.234;13.006;2023-03-11T11:14:05;9.80;54.40
25616;DHT22;13482;48.234;13.006;2023-03-11T11:16:33;9.80;53.40
25616;DHT22;13482;48.234;13.006;2023-03-11T11:19:12;9.80;53.20
25616;DHT22;13482;48.234;13.006;2023-03-11T11:21:44;9.80;54.10
25616;DHT22;13482;48.234;13.006;2023-03-11T11:24:28;9.80;54.70
25616;DHT22;13482;48.234;13.006;2023-03-11T11:27:22;9.80;53.70
25616;DHT22;13482;48.234;13.006;2023-03-11T11:32:35;9.80;52.90
25616;DHT22;13482;48.234;13.006;2023-03-11T11:35:14;9.80;52.30
25616;DHT22;13482;48.234;13.006;2023-03-11T11:37:46;9.70;52.60
25616;DHT22;13482;48.234;13.006;2023-03-11T11:40:23;9.60;52.80
25616;DHT22;13482;48.234;13.006;2023-03-11T11:45:54;9.30;52.90
25616;DHT22;13482;48.234;13.006;2023-03-11T11:51:32;8.90;53.00
25616;DHT22;13482;48.234;13.006;2023-03-11T11:56:41;8.60;53.50
25616;DHT22;13482;48.234;13.006;2023-03-11T11:59:17;8.60;54.10
25616;DHT22;13482;48.234;13.006;2023-03-11T12:04:49;8.60;53.10
25616;DHT22;13482;48.234;13.006;2023-03-11T12:18:35;8.80;53.10
25616;DHT22;13482;48.234;13.006;2023-03-11T12:26:59;9.10;53.40
25616;DHT22;13482;48.234;13.006;2023-03-11T12:29:39;9.20;53.00
25616;DHT22;13482;48.234;13.006;2023-03-11T12:32:38;9.20;52.90
25616;DHT22;13482;48.234;13.006;2023-03-11T12:35:26;9.20;52.10
25616;DHT22;13482;48.234;13.006;2023-03-11T12:38:17;9.10;52.30
25616;DHT22;13482;48.234;13.006;2023-03-11T12:46:10;9.00;52.90
25616;DHT22;13482;48.234;13.006;2023-03-11T12:48:43;8.90;52.40
25616;DHT22;13482;48.234;13.006;2023-03-11T12:51:41;8.90;52.70
25616;DHT22;13482;48.234;13.006;2023-03-11T12:54:48;8.90;50.10
25616;DHT22;13482;48.234;13.006;2023-03-11T12:57:42;8.90;52.80
25616;DHT22;13482;48.234;13.006;2023-03-11T13:08:30;9.10;51.90
25616;DHT22;13482;48.234;13.006;2023-03-11T13:17:23;9.00;51.70
25616;DHT22;13482;48.234;13.006;2023-03-11T13:19:53;9.00;52.20
25616;DHT22;13482;48.234;13.006;2023-03-11T13:25:43;9.10;50.70
25616;DHT22;13482;48.234;13.006;2023-03-11T13:36:51;8.90;50.80
25616;DHT22;13482;48.234;13.006;2023-03-11T13:41:54;8.90;51.90
25616;DHT22;13482;48.234;13.006;2023-03-11T13:44:29;8.90;49.70
25616;DHT22;13482;48.234;13.006;2023-03-11T13:50:05;8.90;51.30
25616;DHT22;13482;48.234;13.006;2023-03-11T13:52:41;8.90;49.90
25616;DHT22;13482;48.234;13.006;2023-03-11T13:55:21;8.80;51.20
25616;DHT22;13482;48.234;13.006;2023-03-11T13:57:56;8.80;51.10
25616;DHT22;13482;48.234;13.006;2023-03-11T14:00:28;8.70;50.80
25616;DHT22;13482;48.234;13.006;2023-03-11T14:02:58;8.70;52.00
25616;DHT22;13482;48.234;13.006;2023-03-11T14:05:32;8.70;52.30
25616;DHT22;13482;48.234;13.006;2023-03-11T14:08:18;8.70;50.30
25616;DHT22;13482;48.234;13.006;2023-03-11T14:13:41;8.60;49.80
25616;DHT22;13482;48.234;13.006;2023-03-11T14:16:16;8.60;51.00
25616;DHT22;13482;48.234;13.006;2023-03-11T14:19:15;8.60;51.80
25616;DHT22;13482;48.234;13.006;2023-03-11T14:21:44;8.60;51.20
25616;DHT22;13482;48.234;13.006;2023-03-11T14:24:18;8.70;50.80
25616;DHT22;13482;48.234;13.006;2023-03-11T14:26:50;8.70;51.20
25616;DHT22;13482;48.234;13.006;2023-03-11T14:29:34;8.80;51.70
25616;DHT22;13482;48.234;13.006;2023-03-11T14:32:24;8.80;51.50
25616;DHT22;13482;48.234;13.006;2023-03-11T14:34:54;8.80;51.20
25616;DHT22;13482;48.234;13.006;2023-03-11T14:37:32;8.80;51.10
25616;DHT22;13482;48.234;13.006;2023-03-11T14:40:01;8.90;51.80
25616;DHT22;13482;48.234;13.006;2023-03-11T14:42:36;8.90;52.20
25616;DHT22;13482;48.234;13.006;2023-03-11T14:45:17;9.00;52.00
25616;DHT22;13482;48.234;13.006;2023-03-11T14:48:03;9.10;52.30
25616;DHT22;13482;48.234;13.006;2023-03-11T14:50:52;9.20;52.90
25616;DHT22;13482;48.234;13.006;2023-03-11T14:54:13;9.30;52.30
25616;DHT22;13482;48.234;13.006;2023-03-11T14:56:36;9.40;52.40
25616;DHT22;13482;48.234;13.006;2023-03-11T15:01:57;9.60;50.20
25616;DHT22;13482;48.234;13.006;2023-03-11T15:04:37;9.60;50.90
25616;DHT22;13482;48.234;13.006;2023-03-11T15:07:05;9.70;49.80
25616;DHT22;13482;48.234;13.006;2023-03-11T15:09:32;9.80;51.20
25616;DHT22;13482;48.234;13.006;2023-03-11T15:12:01;10.00;51.40
25616;DHT22;13482;48.234;13.006;2023-03-11T15:14:35;10.10;51.80
25616;DHT22;13482;48.234;13.006;2023-03-11T15:17:20;10.30;51.50
25616;DHT22;13482;48.234;13.006;2023-03-11T15:20:32;10.60;51.00
25616;DHT22;13482;48.234;13.006;2023-03-11T15:23:05;10.70;49.10
25616;DHT22;13482;48.234;13.006;2023-03-11T15:25:35;10.90;51.10
25616;DHT22;13482;48.234;13.006;2023-03-11T15:28:33;11.00;50.70
25616;DHT22;13482;48.234;13.006;2023-03-11T15:33:48;10.90;46.30
25616;DHT22;13482;48.234;13.006;2023-03-11T15:36:32;10.60;46.80
25616;DHT22;13482;48.234;13.006;2023-03-11T15:39:15;10.30;47.90
25616;DHT22;13482;48.234;13.006;2023-03-11T15:42:10;10.20;48.40
25616;DHT22;13482;48.234;13.006;2023-03-11T15:47:41;10.00;49.30
25616;DHT22;13482;48.234;13.006;2023-03-11T15:50:20;10.00;49.90
25616;DHT22;13482;48.234;13.006;2023-03-11T15:53:12;10.10;49.80
25616;DHT22;13482;48.234;13.006;2023-03-11T15:55:39;10.20;49.50
25616;DHT22;13482;48.234;13.006;2023-03-11T15:58:07;10.10;49.00
25616;DHT22;13482;48.234;13.006;2023-03-11T16:00:36;10.10;48.90
25616;DHT22;13482;48.234;13.006;2023-03-11T16:03:03;10.00;49.50
25616;DHT22;13482;48.234;13.006;2023-03-11T16:05:30;10.00;49.40
25616;DHT22;13482;48.234;13.006;2023-03-11T16:07:58;9.90;49.40
25616;DHT22;13482;48.234;13.006;2023-03-11T16:10:25;9.90;49.80
25616;DHT22;13482;48.234;13.006;2023-03-11T16:12:54;9.90;49.60
25616;DHT22;13482;48.234;13.006;2023-03-11T16:15:25;9.90;50.40
25616;DHT22;13482;48.234;13.006;2023-03-11T16:18:00;10.10;51.30
25616;DHT22;13482;48.234;13.006;2023-03-11T16:20:33;10.30;50.90
25616;DHT22;13482;48.234;13.006;2023-03-11T16:23:23;10.60;51.80
25616;DHT22;13482;48.234;13.006;2023-03-11T16:25:58;11.00;50.70
25616;DHT22;13482;48.234;13.006;2023-03-11T16:28:27;11.10;49.00
25616;DHT22;13482;48.234;13.006;2023-03-11T16:30:54;11.00;48.30
25616;DHT22;13482;48.234;13.006;2023-03-11T16:33:22;10.80;49.00
25616;DHT22;13482;48.234;13.006;2023-03-11T16:35:49;10.60;49.00
25616;DHT22;13482;48.234;13.006;2023-03-11T16:38:18;10.40;49.00
25616;DHT22;13482;48.234;13.006;2023-03-11T16:41:15;10.10;48.70
25616;DHT22;13482;48.234;13.006;2023-03-11T16:43:43;9.80;49.00
25616;DHT22;13482;48.234;13.006;2023-03-11T16:46:10;9.50;49.50
25616;DHT22;13482;48.234;13.006;2023-03-11T16:48:38;9.30;49.90
25616;DHT22;13482;48.234;13.006;2023-03-11T16:51:05;9.10;50.10
25616;DHT22;13482;48.234;13.006;2023-03-11T16:53:33;8.90;50.10
25616;DHT22;13482;48.234;13.006;2023-03-11T16:56:00;8.80;50.30
25616;DHT22;13482;48.234;13.006;2023-03-11T16:58:27;8.60;50.50
25616;DHT22;13482;48.234;13.006;2023-03-11T17:00:54;8.50;50.80
25616;DHT22;13482;48.234;13.006;2023-03-11T17:03:21;8.30;50.90
25616;DHT22;13482;48.234;13.006;2023-03-11T17:05:50;8.20;51.00
25616;DHT22;13482;48.234;13.006;2023-03-11T17:08:27;8.10;51.10
25616;DHT22;13482;48.234;13.006;2023-03-11T17:10:54;8.00;51.30
25616;DHT22;13482;48.234;13.006;2023-03-11T17:13:21;7.90;51.50
25616;DHT22;13482;48.234;13.006;2023-03-11T17:15:59;7.80;51.60
25616;DHT22;13482;48.234;13.006;2023-03-11T17:18:26;7.70;51.80
25616;DHT22;13482;48.234;13.006;2023-03-11T17:20:54;7.60;51.90
25616;DHT22;13482;48.234;13.006;2023-03-11T17:23:21;7.50;52.00
25616;DHT22;13482;48.234;13.006;2023-03-11T17:25:49;7.50;52.10
25616;DHT22;13482;48.234;13.006;2023-03-11T17:28:16;7.40;52.20
25616;DHT22;13482;48.234;13.006;2023-03-11T17:30:43;7.40;52.20
25616;DHT22;13482;48.234;13.006;2023-03-11T17:33:11;7.40;52.30
25616;DHT22;13482;48.234;13.006;2023-03-11T17:35:38;7.30;52.40
25616;DHT22;13482;48.234;13.006;2023-03-11T17:38:06;7.30;52.60
25616;DHT22;13482;48.234;13.006;2023-03-11T17:40:33;7.30;52.70
25616;DHT22;13482;48.234;13.006;2023-03-11T17:43:00;7.30;52.80
25616;DHT22;13482;48.234;13.006;2023-03-11T17:45:27;7.20;53.00
25616;DHT22;13482;48.234;13.006;2023-03-11T17:47:55;7.20;53.10
25616;DHT22;13482;48.234;13.006;2023-03-11T17:50:22;7.10;53.20